Time;durP1;ratioP1;P1;durP2;ratioP2;P2;SDS_P1;SDS_P2;PMS_P1;PMS_P2;Temp;Humidity;BMP_temperature;BMP_pressure;BME280_temperature;BME280_humidity;BME280_pressure;Samples;Min_cycle;Max_cycle;Signal;HPM_P1;HPM_P2
2021/12/25 00:01:09;;;;;;;378.55;38.33;;;7.80;99.90;;;;;;6357056;22;19903;-68
2021/12/25 00:03:36;;;;;;;410.98;40.55;;;7.80;99.90;;;;;;6359448;22;20022;-69
2021/12/25 00:06:03;;;;;;;374.73;40.17;;;7.90;99.90;;;;;;6359737;22;20026;-70
2021/12/25 00:08:31;;;;;;;592.00;37.47;;;7.90;99.90;;;;;;6358464;22;20007;-70
2021/12/25 00:10:58;;;;;;;296.77;38.03;;;7.80;99.90;;;;;;6356950;22;20007;-69
2021/12/25 00:13:25;;;;;;;547.47;37.38;;;7.80;99.90;;;;;;6355598;22;20007;-70
2021/12/25 00:15:51;;;;;;;;;;;7.90;99.90;;;;;;6358895;22;20006;-68
2021/12/25 00:18:18;;;;;;;553.55;37.53;;;7.90;99.90;;;;;;6357867;22;20312;-71
2021/12/25 00:20:44;;;;;;;474.65;40.58;;;7.80;99.90;;;;;;6358238;22;19995;-70
2021/12/25 00:23:10;;;;;;;490.80;39.08;;;7.80;99.90;;;;;;6358850;22;20006;-70
2021/12/25 00:25:41;;;;;;;;;;;7.90;99.90;;;;;;6358421;22;20006;-69
2021/12/25 00:33:37;;;;;;;164.55;33.95;;;7.60;99.90;;;;;;6349128;22;20045;-69
2021/12/25 00:36:04;;;;;;;312.60;35.15;;;7.70;99.90;;;;;;6351859;22;20010;-69
2021/12/25 00:38:31;;;;;;;330.27;38.50;;;7.70;99.90;;;;;;6348391;22;20010;-69
2021/12/25 00:40:57;;;;;;;293.40;38.53;;;7.70;99.90;;;;;;6321034;22;19998;-73
2021/12/25 00:43:23;;;;;;;468.50;44.17;;;7.80;99.90;;;;;;6352702;22;19998;-69
2021/12/25 00:45:48;;;;;;;254.73;36.70;;;7.80;99.90;;;;;;6347195;22;20040;-68
2021/12/25 00:48:14;;;;;;;271.42;34.22;;;7.80;99.90;;;;;;6353821;22;20003;-70
2021/12/25 00:50:40;;;;;;;231.32;33.55;;;7.90;99.90;;;;;;6359237;22;20003;-71
2021/12/25 00:53:06;;;;;;;215.80;31.52;;;8.00;99.90;;;;;;6361512;22;20015;-73
2021/12/25 00:55:32;;;;;;;322.15;32.63;;;8.00;99.90;;;;;;6362596;22;19987;-70
2021/12/25 00:57:57;;;;;;;325.95;34.03;;;8.00;99.90;;;;;;6363848;22;20003;-69
2021/12/25 01:00:23;;;;;;;267.60;32.92;;;7.80;99.90;;;;;;6361410;22;20071;-71
2021/12/25 01:02:49;;;;;;;246.48;31.48;;;7.70;99.90;;;;;;6364880;22;20002;-70
2021/12/25 01:05:16;;;;;;;289.20;32.35;;;7.80;99.90;;;;;;6363685;22;20022;-69
2021/12/25 01:07:43;;;;;;;227.35;35.45;;;7.90;99.90;;;;;;6363629;22;20007;-71
2021/12/25 01:10:14;;;;;;;208.02;32.33;;;7.80;99.90;;;;;;6364592;22;20120;-70
2021/12/25 01:12:56;;;;;;;316.80;38.92;;;7.70;99.90;;;;;;6363818;22;20015;-69
2021/12/25 01:39:56;;;;;;;291.92;27.60;;;7.80;99.90;;;;;;6362743;22;20032;-69
2021/12/25 01:47:55;;;;;;;204.35;26.52;;;7.70;99.90;;;;;;6365006;22;20025;-70
2021/12/25 01:50:41;;;;;;;295.73;31.65;;;7.70;99.90;;;;;;6362972;22;20039;-69
2021/12/25 01:53:06;;;;;;;269.13;28.67;;;7.70;99.90;;;;;;6360011;22;20014;-69
2021/12/25 01:55:32;;;;;;;186.55;24.55;;;7.60;99.90;;;;;;6363791;22;20003;-69
2021/12/25 01:58:00;;;;;;;419.05;35.33;;;7.50;99.90;;;;;;6363245;22;20017;-68
2021/12/25 02:00:29;;;;;;;318.92;30.95;;;7.40;99.90;;;;;;6334634;22;20006;-70
2021/12/25 02:02:55;;;;;;;166.18;27.35;;;7.30;99.90;;;;;;6361830;22;20032;-72
2021/12/25 02:05:21;;;;;;;;;;;7.20;99.90;;;;;;6361523;22;19991;-69
2021/12/25 02:07:47;;;;;;;177.77;23.92;;;7.30;99.90;;;;;;6361940;22;19906;-70
2021/12/25 02:10:15;;;;;;;175.05;25.65;;;7.30;99.90;;;;;;6361571;22;19999;-69
2021/12/25 02:12:41;;;;;;;201.85;26.67;;;7.20;99.90;;;;;;6332408;22;19999;-69
2021/12/25 02:15:15;;;;;;;139.38;23.13;;;7.20;99.90;;;;;;6361215;22;20069;-69
2021/12/25 02:20:43;;;;;;;125.38;23.70;;;7.40;99.90;;;;;;6360865;22;20014;-69
2021/12/25 02:23:22;;;;;;;141.13;22.88;;;7.30;99.90;;;;;;6361938;22;20013;-70
2021/12/25 02:25:50;;;;;;;106.47;21.95;;;7.30;99.90;;;;;;6361324;22;20018;-69
2021/12/25 02:28:16;;;;;;;129.48;22.73;;;7.20;99.90;;;;;;6363463;22;19991;-69
2021/12/25 02:30:45;;;;;;;312.73;29.80;;;7.30;99.90;;;;;;6363605;22;20003;-70
2021/12/25 02:33:11;;;;;;;88.22;22.55;;;7.10;99.90;;;;;;6362365;22;20026;-70
2021/12/25 02:35:37;;;;;;;83.03;22.02;;;7.10;99.90;;;;;;6363153;22;20034;-69
2021/12/25 02:38:04;;;;;;;92.22;23.02;;;7.10;99.90;;;;;;6363528;22;20014;-69
2021/12/25 02:40:30;;;;;;;88.18;23.42;;;7.10;99.90;;;;;;6361262;22;19983;-69
2021/12/25 02:42:56;;;;;;;92.22;22.67;;;7.10;99.90;;;;;;6363790;22;19987;-69
2021/12/25 02:45:23;;;;;;;104.15;23.52;;;7.10;99.90;;;;;;6361927;22;19994;-68
2021/12/25 02:47:51;;;;;;;103.47;22.55;;;7.20;99.90;;;;;;6360436;22;20021;-69
2021/12/25 02:50:27;;;;;;;107.20;24.00;;;7.20;99.90;;;;;;6362208;22;19991;-70
2021/12/25 02:52:56;;;;;;;102.28;24.08;;;7.20;99.90;;;;;;6361345;22;19995;-70
2021/12/25 02:55:21;;;;;;;141.52;24.10;;;7.30;99.90;;;;;;6363664;22;19997;-69
2021/12/25 02:57:51;;;;;;;97.30;23.48;;;7.30;99.90;;;;;;6362887;22;19987;-69
2021/12/25 03:00:33;;;;;;;113.63;21.90;;;7.40;99.90;;;;;;6334657;22;20003;-69
2021/12/25 03:03:00;;;;;;;93.60;22.50;;;7.30;99.90;;;;;;6363477;22;20042;-70
2021/12/25 03:05:26;;;;;;;101.70;21.92;;;7.30;99.90;;;;;;6361507;22;20003;-70
2021/12/25 03:07:52;;;;;;;97.47;22.75;;;7.20;99.90;;;;;;6363505;22;20062;-69
2021/12/25 03:10:19;;;;;;;96.38;20.42;;;7.20;99.90;;;;;;6363684;22;20038;-69
2021/12/25 03:13:06;;;;;;;98.80;22.00;;;7.10;99.90;;;;;;6362939;22;20031;-69
2021/12/25 03:16:07;;;;;;;132.90;22.42;;;7.20;99.90;;;;;;6363290;22;20067;-69
2021/12/25 03:18:32;;;;;;;99.20;22.50;;;7.30;99.90;;;;;;6354615;22;19990;-69
2021/12/25 03:21:03;;;;;;;131.68;23.77;;;7.30;99.90;;;;;;6361357;22;19991;-69
2021/12/25 03:23:30;;;;;;;115.40;24.63;;;7.20;99.90;;;;;;6361244;22;20002;-70
2021/12/25 03:25:58;;;;;;;121.85;24.42;;;7.30;99.90;;;;;;6362369;22;19983;-69
2021/12/25 03:28:29;;;;;;;153.15;24.92;;;7.30;99.90;;;;;;6361802;22;19987;-69
2021/12/25 03:30:59;;;;;;;184.55;25.85;;;7.30;99.90;;;;;;6335425;22;20015;-70
2021/12/25 03:33:26;;;;;;;216.90;26.88;;;7.30;99.90;;;;;;6362006;22;20003;-68
2021/12/25 03:35:53;;;;;;;137.10;24.40;;;7.30;99.90;;;;;;6361817;22;19991;-69
2021/12/25 03:38:21;;;;;;;141.38;24.75;;;7.30;99.90;;;;;;6363796;22;19991;-69
2021/12/25 03:40:49;;;;;;;132.60;24.02;;;7.30;99.90;;;;;;6362779;22;20297;-68
2021/12/25 03:43:17;;;;;;;177.05;25.80;;;7.40;99.90;;;;;;6363845;22;20047;-70
2021/12/25 03:45:43;;;;;;;190.93;25.75;;;7.50;99.90;;;;;;6361765;22;20020;-69
2021/12/25 03:48:14;;;;;;;423.85;32.17;;;7.50;99.90;;;;;;6362387;22;19995;-69
2021/12/25 03:58:54;;;;;;;207.13;26.90;;;7.80;99.90;;;;;;6361288;22;20193;-69
2021/12/25 04:01:41;;;;;;;144.93;23.23;;;8.00;99.90;;;;;;6362132;22;19987;-68
2021/12/25 04:06:47;;;;;;;130.20;26.08;;;7.90;99.90;;;;;;6362405;22;20021;-69
2021/12/25 04:09:23;;;;;;;240.50;30.35;;;7.90;99.90;;;;;;6363316;22;20014;-70
2021/12/25 04:11:50;;;;;;;217.13;31.37;;;7.80;99.90;;;;;;6363599;22;20002;-69
2021/12/25 04:14:16;;;;;;;149.77;28.02;;;7.80;99.90;;;;;;6362210;22;20273;-69
2021/12/25 04:16:42;;;;;;;128.18;27.10;;;7.80;99.90;;;;;;6363258;22;20259;-69
2021/12/25 04:19:07;;;;;;;160.13;26.50;;;7.90;99.90;;;;;;6362071;22;20112;-69
2021/12/25 04:21:35;;;;;;;132.57;24.80;;;8.00;99.90;;;;;;6363602;22;20003;-70
2021/12/25 04:24:02;;;;;;;268.00;29.10;;;7.90;99.90;;;;;;6362732;22;20040;-69
2021/12/25 04:26:28;;;;;;;109.85;26.13;;;7.90;99.90;;;;;;6362604;22;19987;-70
2021/12/25 04:42:55;;;;;;;179.15;25.90;;;7.90;99.90;;;;;;6364561;22;20028;-70
2021/12/25 05:04:21;;;;;;;86.97;22.45;;;8.30;99.90;;;;;;6361890;22;20005;-70
2021/12/25 05:06:48;;;;;;;;;;;8.40;99.90;;;;;;6363101;22;20029;-70
2021/12/25 05:09:15;;;;;;;71.25;22.30;;;8.40;99.90;;;;;;6337605;22;19908;-69
2021/12/25 05:11:40;;;;;;;108.88;23.95;;;8.50;99.90;;;;;;6333480;22;20007;-69
2021/12/25 05:14:06;;;;;;;72.78;21.70;;;8.40;99.90;;;;;;6348979;22;20003;-69
2021/12/25 05:16:33;;;;;;;57.58;17.25;;;8.50;99.90;;;;;;6354581;22;20528;-69
2021/12/25 05:18:59;;;;;;;67.32;18.50;;;8.50;99.90;;;;;;6359698;22;20013;-69
2021/12/25 05:21:25;;;;;;;54.65;15.75;;;8.50;99.90;;;;;;6362637;22;19987;-69
2021/12/25 05:23:51;;;;;;;76.93;19.42;;;8.50;99.90;;;;;;6360385;22;19999;-70
2021/12/25 05:26:17;;;;;;;55.30;15.98;;;8.60;99.90;;;;;;6360318;22;20014;-69
2021/12/25 05:28:45;;;;;;;62.72;17.05;;;8.70;99.90;;;;;;6361295;22;20003;-70
2021/12/25 05:31:13;;;;;;;63.22;16.60;;;8.80;99.90;;;;;;6361122;22;20006;-69
2021/12/25 05:33:41;;;;;;;74.28;17.17;;;8.70;99.90;;;;;;6358496;22;20022;-68
2021/12/25 05:36:08;;;;;;;64.03;14.45;;;8.60;99.90;;;;;;6333258;22;19986;-69
2021/12/25 05:38:34;;;;;;;53.55;13.60;;;8.50;99.90;;;;;;6360374;22;19994;-68
2021/12/25 05:41:01;;;;;;;56.90;14.00;;;8.50;99.90;;;;;;6360480;22;19999;-69
2021/12/25 05:43:27;;;;;;;55.45;14.73;;;8.50;99.90;;;;;;6362888;22;20009;-70
2021/12/25 05:45:53;;;;;;;45.47;12.93;;;8.40;99.90;;;;;;6360021;22;19991;-68
2021/12/25 05:48:20;;;;;;;54.22;14.85;;;8.40;99.90;;;;;;6333287;22;19995;-69
2021/12/25 05:50:45;;;;;;;;;;;8.30;99.90;;;;;;6358536;22;20018;-70
2021/12/25 05:53:11;;;;;;;46.40;14.13;;;8.30;99.90;;;;;;6358743;22;19922;-69
2021/12/25 05:55:37;;;;;;;53.15;13.68;;;8.50;99.90;;;;;;6361756;22;19999;-69
2021/12/25 05:58:03;;;;;;;52.97;12.90;;;8.60;99.90;;;;;;6361825;22;20090;-69
2021/12/25 06:00:30;;;;;;;31.25;11.48;;;8.70;99.90;;;;;;6361112;22;19995;-69
2021/12/25 06:02:57;;;;;;;47.15;11.43;;;8.80;99.90;;;;;;6362692;22;20066;-69
2021/12/25 06:05:23;;;;;;;45.20;11.55;;;8.90;99.90;;;;;;6361018;22;20051;-68
2021/12/25 06:07:49;;;;;;;36.75;11.60;;;8.90;99.90;;;;;;6334131;22;20065;-69
2021/12/25 06:10:16;;;;;;;23.23;8.90;;;8.90;99.90;;;;;;6361289;22;20006;-69
2021/12/25 06:12:44;;;;;;;30.73;7.97;;;8.80;99.90;;;;;;6361144;22;20010;-69
2021/12/25 06:15:13;;;;;;;19.92;7.38;;;8.80;99.90;;;;;;6361915;22;20029;-68
2021/12/25 06:17:39;;;;;;;26.90;7.57;;;8.80;99.90;;;;;;6334821;22;19998;-69
2021/12/25 06:20:06;;;;;;;22.88;6.80;;;8.80;99.90;;;;;;6361363;22;19990;-69
2021/12/25 06:22:32;;;;;;;19.05;6.20;;;8.90;99.90;;;;;;6362499;22;20052;-68
2021/12/25 06:24:58;;;;;;;25.60;6.95;;;8.60;99.90;;;;;;6362710;22;19994;-69
2021/12/25 06:27:24;;;;;;;20.85;7.18;;;8.80;99.90;;;;;;6361259;22;20506;-70
2021/12/25 06:29:50;;;;;;;19.30;6.85;;;8.80;99.90;;;;;;6333330;22;20098;-69
2021/12/25 06:32:16;;;;;;;;;;;8.80;99.90;;;;;;6360724;22;20516;-69
2021/12/25 06:34:42;;;;;;;27.60;7.72;;;8.80;99.90;;;;;;6362425;22;19914;-69
2021/12/25 06:37:08;;;;;;;24.73;7.82;;;8.80;99.90;;;;;;6363605;22;20010;-71
2021/12/25 06:39:34;;;;;;;36.50;9.48;;;8.70;99.90;;;;;;6363468;22;19987;-69
2021/12/25 06:42:01;;;;;;;38.60;9.43;;;8.60;99.90;;;;;;6361031;22;19987;-69
2021/12/25 06:44:27;;;;;;;37.13;11.88;;;8.60;99.90;;;;;;6360715;22;19987;-68
2021/12/25 06:46:53;;;;;;;52.03;13.73;;;8.60;99.90;;;;;;6359075;22;20049;-68
2021/12/25 06:49:20;;;;;;;41.13;12.15;;;8.60;99.90;;;;;;6359305;22;20002;-69
2021/12/25 06:51:47;;;;;;;36.00;11.77;;;8.60;99.90;;;;;;6359107;22;19999;-69
2021/12/25 06:54:13;;;;;;;47.25;13.68;;;8.70;99.90;;;;;;6357957;22;19994;-69
2021/12/25 06:56:39;;;;;;;55.53;14.52;;;8.60;99.90;;;;;;6362279;22;20021;-69
2021/12/25 06:59:05;;;;;;;44.72;14.23;;;8.60;99.90;;;;;;6358424;22;20125;-69
2021/12/25 07:01:31;;;;;;;;;;;8.60;99.90;;;;;;6359933;22;19979;-69
2021/12/25 07:03:56;;;;;;;46.33;13.45;;;8.80;99.90;;;;;;6332032;22;19893;-69
2021/12/25 07:06:22;;;;;;;50.22;11.88;;;8.90;99.90;;;;;;6359772;22;19995;-69
2021/12/25 07:08:49;;;;;;;49.50;12.02;;;8.80;99.90;;;;;;6361371;22;19994;-70
2021/12/25 07:11:16;;;;;;;54.05;12.60;;;8.80;99.90;;;;;;6360638;22;20018;-69
2021/12/25 07:13:44;;;;;;;43.17;10.13;;;8.80;99.90;;;;;;6359381;22;20003;-69
2021/12/25 07:16:10;;;;;;;42.42;10.23;;;9.00;99.90;;;;;;6358667;22;19997;-69
2021/12/25 07:18:36;;;;;;;;;;;9.00;99.90;;;;;;6358648;22;20009;-70
2021/12/25 07:21:06;;;;;;;54.08;9.88;;;9.00;99.90;;;;;;6355810;22;19898;-68
2021/12/25 07:23:32;;;;;;;36.47;9.38;;;9.10;99.90;;;;;;6357619;22;19987;-69
2021/12/25 07:25:58;;;;;;;;;;;9.20;99.90;;;;;;6329206;22;20013;-69
2021/12/25 07:28:24;;;;;;;44.17;10.13;;;9.10;99.90;;;;;;6356151;22;19906;-69
2021/12/25 07:30:50;;;;;;;41.10;9.80;;;9.10;99.90;;;;;;6356205;22;19998;-69
2021/12/25 07:33:17;;;;;;;59.17;10.23;;;9.10;99.90;;;;;;6354747;22;20002;-70
2021/12/25 07:35:43;;;;;;;55.83;9.65;;;9.20;99.90;;;;;;6357354;22;20003;-68
2021/12/25 07:38:09;;;;;;;51.83;9.85;;;9.20;99.90;;;;;;6357451;22;19999;-70
2021/12/25 07:40:35;;;;;;;50.30;9.25;;;9.20;99.90;;;;;;6355249;22;19995;-70
2021/12/25 07:43:01;;;;;;;50.47;8.20;;;9.30;99.90;;;;;;6358672;22;20002;-68
2021/12/25 07:45:27;;;;;;;53.53;7.95;;;9.30;99.90;;;;;;6357259;22;19995;-69
2021/12/25 07:47:59;;;;;;;40.33;6.78;;;9.40;99.90;;;;;;6358275;22;20013;-70
2021/12/25 07:50:27;;;;;;;51.47;6.72;;;9.40;99.90;;;;;;6359173;22;20653;-71
2021/12/25 07:52:53;;;;;;;46.33;8.00;;;9.30;99.90;;;;;;6358481;22;19999;-69
2021/12/25 07:55:19;;;;;;;29.10;6.90;;;9.30;99.90;;;;;;6360214;22;20006;-71
2021/12/25 07:57:45;;;;;;;53.15;7.95;;;9.20;99.90;;;;;;6332349;22;20002;-69
2021/12/25 08:00:12;;;;;;;39.17;8.15;;;9.20;99.90;;;;;;6358370;22;20003;-70
2021/12/25 08:02:38;;;;;;;45.78;8.98;;;9.20;99.90;;;;;;6328682;22;20006;-68
2021/12/25 08:05:04;;;;;;;49.40;9.95;;;9.10;99.90;;;;;;6358251;22;19995;-69
2021/12/25 08:07:30;;;;;;;;;;;9.10;99.90;;;;;;6358664;22;20011;-69
2021/12/25 08:10:03;;;;;;;45.33;10.57;;;9.10;99.90;;;;;;6357620;22;19913;-70
2021/12/25 08:12:28;;;;;;;44.63;11.15;;;9.10;99.90;;;;;;6356217;22;19999;-68
2021/12/25 08:14:54;;;;;;;52.97;11.93;;;9.10;99.90;;;;;;6356931;22;20021;-68
2021/12/25 08:17:20;;;;;;;39.28;11.68;;;9.10;99.90;;;;;;6328125;22;19999;-68
2021/12/25 08:19:46;;;;;;;50.90;12.65;;;9.20;99.90;;;;;;6328677;22;19999;-68
2021/12/25 08:22:11;;;;;;;42.90;13.30;;;9.20;99.90;;;;;;6356725;22;20010;-68
2021/12/25 08:24:37;;;;;;;49.55;13.32;;;9.20;99.90;;;;;;6358236;22;19995;-70
2021/12/25 08:27:05;;;;;;;48.15;13.93;;;9.20;99.90;;;;;;6356640;22;19991;-70
2021/12/25 08:29:31;;;;;;;59.95;14.52;;;9.30;99.90;;;;;;6357711;22;19995;-68
2021/12/25 08:31:58;;;;;;;50.83;16.13;;;9.20;99.90;;;;;;6352987;22;19995;-69
2021/12/25 08:34:23;;;;;;;54.67;17.25;;;9.10;99.90;;;;;;6355361;22;20025;-69
2021/12/25 08:36:49;;;;;;;55.83;17.15;;;9.20;99.90;;;;;;6355009;22;19995;-69
2021/12/25 08:39:15;;;;;;;57.08;16.75;;;9.20;99.90;;;;;;6354347;22;19999;-69
2021/12/25 08:41:41;;;;;;;50.30;16.88;;;9.30;99.90;;;;;;6355223;22;19999;-69
2021/12/25 08:44:29;;;;;;;50.88;16.90;;;9.30;99.90;;;;;;6355545;22;20078;-69
2021/12/25 08:46:56;;;;;;;60.63;17.33;;;9.20;99.90;;;;;;6355281;22;20043;-69
2021/12/25 08:49:25;;;;;;;56.50;17.73;;;9.30;99.90;;;;;;6358464;22;19991;-68
2021/12/25 08:51:55;;;;;;;59.30;18.73;;;9.20;99.90;;;;;;6357903;22;20051;-69
2021/12/25 08:54:21;;;;;;;63.70;19.33;;;9.20;99.90;;;;;;6357522;22;20022;-68
2021/12/25 08:56:50;;;;;;;54.58;17.92;;;9.30;99.90;;;;;;6358647;22;20010;-69
2021/12/25 08:59:16;;;;;;;64.78;20.45;;;9.30;99.90;;;;;;6357719;22;20009;-72
2021/12/25 09:01:42;;;;;;;63.92;20.77;;;9.30;99.90;;;;;;6360247;22;19999;-74
2021/12/25 09:04:08;;;;;;;54.95;18.98;;;9.30;99.90;;;;;;6362729;22;20034;-69
2021/12/25 09:06:33;;;;;;;59.28;18.88;;;9.30;99.90;;;;;;6332910;22;20073;-69
2021/12/25 09:09:00;;;;;;;68.32;21.58;;;9.30;99.90;;;;;;6359067;22;20058;-68
2021/12/25 09:11:26;;;;;;;57.20;20.25;;;9.40;99.90;;;;;;6355990;22;19999;-69
2021/12/25 09:13:52;;;;;;;64.53;21.00;;;9.40;99.90;;;;;;6355723;22;20002;-69
2021/12/25 09:16:18;;;;;;;62.72;20.33;;;9.30;99.90;;;;;;6328357;22;20013;-69
2021/12/25 09:18:44;;;;;;;;;;;9.40;99.90;;;;;;6355790;22;20002;-70
2021/12/25 09:21:10;;;;;;;61.95;19.17;;;9.40;99.90;;;;;;6356050;22;19903;-69
2021/12/25 09:23:36;;;;;;;59.35;19.38;;;9.40;99.90;;;;;;6357298;22;20013;-69
2021/12/25 09:26:02;;;;;;;59.17;19.63;;;9.50;99.90;;;;;;6356178;22;20407;-68
2021/12/25 09:28:28;;;;;;;65.25;21.00;;;9.40;99.90;;;;;;6357833;22;20059;-69
2021/12/25 09:30:53;;;;;;;66.90;19.95;;;9.40;99.90;;;;;;6354650;22;19999;-68
2021/12/25 09:33:19;;;;;;;56.28;20.33;;;9.50;99.90;;;;;;6355498;22;20014;-68
2021/12/25 09:35:45;;;;;;;59.78;21.95;;;9.50;99.90;;;;;;6321744;22;20078;-68
2021/12/25 09:38:11;;;;;;;62.30;21.20;;;9.60;99.90;;;;;;6350237;22;20020;-67
2021/12/25 09:40:36;;;;;;;52.40;20.27;;;9.60;99.90;;;;;;6353955;22;20460;-68
2021/12/25 09:43:02;;;;;;;63.05;21.80;;;9.60;99.90;;;;;;6353715;22;19999;-68
2021/12/25 09:45:28;;;;;;;54.45;20.35;;;9.50;99.90;;;;;;6352309;22;19995;-69
2021/12/25 09:47:54;;;;;;;58.22;19.92;;;9.50;99.90;;;;;;6348945;22;19995;-68
2021/12/25 09:50:20;;;;;;;57.15;20.80;;;9.50;99.90;;;;;;6348917;22;19994;-68
2021/12/25 09:52:46;;;;;;;61.45;19.70;;;9.50;99.90;;;;;;6353354;22;20068;-70
2021/12/25 09:55:13;;;;;;;57.10;20.98;;;9.50;99.90;;;;;;6323792;22;20376;-69
2021/12/25 09:57:39;;;;;;;57.03;22.02;;;9.60;99.90;;;;;;6339677;22;20267;-69
2021/12/25 10:00:10;;;;;;;;;;;9.50;99.90;;;;;;6322403;22;20003;-70
2021/12/25 10:02:50;;;;;;;52.40;18.58;;;9.60;99.90;;;;;;6344220;22;19898;-67
2021/12/25 10:05:30;;;;;;;51.33;18.27;;;9.50;99.90;;;;;;6314873;22;20026;-67
2021/12/25 10:08:11;;;;;;;50.25;17.33;;;9.60;99.90;;;;;;6351716;22;20033;-68
2021/12/25 10:10:40;;;;;;;48.80;18.35;;;9.60;99.90;;;;;;6351369;22;19995;-68
2021/12/25 10:13:21;;;;;;;52.25;18.73;;;9.60;99.90;;;;;;6347934;22;20642;-69
2021/12/25 10:15:49;;;;;;;50.05;19.45;;;9.60;99.90;;;;;;6353764;22;19999;-68
2021/12/25 10:18:15;;;;;;;56.58;19.25;;;9.50;99.90;;;;;;6326640;22;20361;-68
2021/12/25 10:20:40;;;;;;;47.63;18.70;;;9.50;99.90;;;;;;6351994;22;19982;-68
2021/12/25 10:23:15;;;;;;;46.08;16.90;;;9.60;99.90;;;;;;6354295;22;20006;-68
2021/12/25 10:25:45;;;;;;;48.13;18.00;;;9.70;99.90;;;;;;6354498;22;20006;-68
2021/12/25 10:28:14;;;;;;;52.08;17.98;;;9.70;99.90;;;;;;6327669;22;20022;-67
2021/12/25 10:30:53;;;;;;;46.45;17.55;;;9.80;99.90;;;;;;6355453;22;19995;-70
2021/12/25 10:33:53;;;;;;;47.35;18.02;;;9.80;99.90;;;;;;6326434;22;20018;-68
2021/12/25 10:36:27;;;;;;;42.78;16.63;;;9.70;99.90;;;;;;6275151;22;20017;-68
2021/12/25 10:39:13;;;;;;;41.45;17.00;;;9.80;99.90;;;;;;6358742;22;20534;-69
2021/12/25 10:41:49;;;;;;;46.88;16.67;;;9.70;99.90;;;;;;6355241;22;19995;-69
2021/12/25 10:44:18;;;;;;;42.38;17.15;;;9.70;99.90;;;;;;6332109;22;20010;-70
2021/12/25 10:46:55;;;;;;;40.50;17.00;;;9.70;99.90;;;;;;6357160;22;20014;-68
2021/12/25 10:49:23;;;;;;;36.38;16.25;;;9.70;99.90;;;;;;6354269;22;20025;-67
2021/12/25 10:51:49;;;;;;;45.00;16.83;;;9.60;99.90;;;;;;6345947;22;19999;-68
2021/12/25 10:54:16;;;;;;;;;;;9.70;99.90;;;;;;6341797;22;20012;-69
2021/12/25 10:56:44;;;;;;;45.90;19.13;;;9.70;99.90;;;;;;6339826;22;19906;-66
2021/12/25 10:59:14;;;;;;;40.42;17.92;;;9.70;99.90;;;;;;6341975;22;20068;-66
2021/12/25 11:01:46;;;;;;;44.67;17.58;;;9.70;99.90;;;;;;6352201;22;19995;-67
2021/12/25 11:04:32;;;;;;;41.97;19.55;;;9.60;99.90;;;;;;6341309;22;20076;-67
2021/12/25 11:07:10;;;;;;;49.13;18.35;;;9.80;99.90;;;;;;6341063;22;20083;-70
2021/12/25 11:09:36;;;;;;;46.85;19.35;;;9.80;99.90;;;;;;6341053;22;20011;-68
2021/12/25 11:12:22;;;;;;;47.00;19.95;;;9.70;99.90;;;;;;6347855;22;20002;-67
2021/12/25 11:14:49;;;;;;;48.55;20.02;;;9.80;99.90;;;;;;6347623;22;19999;-67
2021/12/25 11:17:25;;;;;;;47.47;19.70;;;9.90;99.90;;;;;;6351493;22;20006;-69
2021/12/25 11:19:59;;;;;;;55.50;22.33;;;9.90;99.90;;;;;;6343736;22;19995;-67
2021/12/25 11:22:47;;;;;;;42.00;18.33;;;10.00;99.90;;;;;;6348006;22;19999;-67
2021/12/25 11:25:13;;;;;;;45.35;18.85;;;9.90;99.90;;;;;;6354794;22;20003;-70
2021/12/25 11:27:39;;;;;;;43.30;18.48;;;9.90;99.90;;;;;;6355235;22;19999;-69
2021/12/25 11:30:07;;;;;;;44.17;19.13;;;9.90;99.90;;;;;;6350542;22;20049;-68
2021/12/25 11:32:33;;;;;;;44.65;19.83;;;9.90;99.90;;;;;;6346962;22;19995;-67
2021/12/25 11:34:59;;;;;;;41.67;18.70;;;9.90;99.90;;;;;;6345190;22;20010;-71
2021/12/25 11:37:27;;;;;;;;;;;9.90;99.90;;;;;;6345142;22;19998;-70
2021/12/25 11:39:54;;;;;;;40.83;18.10;;;9.80;99.90;;;;;;6347983;22;19898;-67
2021/12/25 11:42:23;;;;;;;45.90;18.83;;;9.80;99.90;;;;;;6347579;22;20097;-67
2021/12/25 11:44:53;;;;;;;36.00;17.05;;;9.70;99.90;;;;;;6349868;22;20017;-70
2021/12/25 11:47:43;;;;;;;40.25;17.92;;;9.90;99.90;;;;;;6351307;22;20003;-66
2021/12/25 11:50:15;;;;;;;39.50;17.30;;;10.00;99.90;;;;;;6324986;22;20055;-68
2021/12/25 11:52:49;;;;;;;51.22;20.83;;;9.90;99.90;;;;;;6347974;22;20022;-69
2021/12/25 11:55:33;;;;;;;39.10;16.67;;;9.90;99.90;;;;;;6351531;22;20063;-68
2021/12/25 11:58:17;;;;;;;41.00;16.80;;;9.80;99.90;;;;;;6324844;22;19986;-68
2021/12/25 12:00:45;;;;;;;39.55;17.15;;;9.80;99.90;;;;;;6351941;22;20003;-68
2021/12/25 12:03:52;;;;;;;36.10;15.43;;;9.80;99.90;;;;;;6321649;22;20010;-68
2021/12/25 12:06:45;;;;;;;42.05;17.38;;;9.90;99.90;;;;;;6350985;22;20033;-68
2021/12/25 12:09:19;;;;;;;35.08;15.80;;;9.80;99.90;;;;;;6285270;22;20054;-68
2021/12/25 12:11:51;;;;;;;37.28;16.05;;;9.90;99.90;;;;;;6285548;22;20357;-68
2021/12/25 12:14:22;;;;;;;37.25;16.42;;;9.90;99.90;;;;;;6280855;22;20007;-68
2021/12/25 12:16:58;;;;;;;39.97;16.52;;;9.90;99.90;;;;;;6280844;22;20202;-68
2021/12/25 12:19:30;;;;;;;;;;;9.90;99.90;;;;;;6285175;22;20396;-68
2021/12/25 12:21:57;;;;;;;43.15;16.45;;;9.90;99.90;;;;;;6288994;22;19899;-70
2021/12/25 12:24:48;;;;;;;39.67;17.48;;;9.90;99.90;;;;;;6286081;22;20026;-68
2021/12/25 12:27:38;;;;;;;44.03;17.75;;;9.80;99.90;;;;;;6293286;22;20004;-71
2021/12/25 12:30:11;;;;;;;42.17;17.65;;;9.90;99.90;;;;;;6294188;22;20000;-68
2021/12/25 12:32:54;;;;;;;39.03;18.85;;;9.90;99.90;;;;;;6284322;22;20014;-66
2021/12/25 12:35:28;;;;;;;45.70;19.10;;;9.90;99.90;;;;;;6288966;22;20008;-70
2021/12/25 12:37:54;;;;;;;47.78;18.60;;;9.80;99.90;;;;;;6285739;22;20003;-67
2021/12/25 12:40:26;;;;;;;41.83;17.80;;;9.80;99.90;;;;;;6279739;22;20010;-69
2021/12/25 12:42:57;;;;;;;42.72;18.48;;;9.90;99.90;;;;;;6278851;22;20003;-68
2021/12/25 12:45:34;;;;;;;40.75;17.33;;;9.90;99.90;;;;;;6280908;22;20084;-69
2021/12/25 12:48:10;;;;;;;44.85;18.80;;;9.90;99.90;;;;;;6281545;22;20003;-67
2021/12/25 12:50:38;;;;;;;41.00;16.80;;;9.90;99.90;;;;;;6277968;22;20499;-67
2021/12/25 12:53:09;;;;;;;36.13;16.08;;;9.90;99.90;;;;;;6275272;22;20004;-67
2021/12/25 12:55:40;;;;;;;36.90;15.80;;;9.90;99.90;;;;;;6275703;22;20008;-69
2021/12/25 12:58:27;;;;;;;37.28;15.48;;;10.00;99.90;;;;;;6280443;22;20007;-68
2021/12/25 13:00:59;;;;;;;33.35;15.48;;;10.00;99.90;;;;;;6285484;22;20122;-68
2021/12/25 13:03:27;;;;;;;34.60;15.68;;;10.00;99.90;;;;;;6283566;22;19996;-69
2021/12/25 13:06:02;;;;;;;34.03;15.82;;;10.00;99.90;;;;;;6284129;22;19996;-70
2021/12/25 13:08:32;;;;;;;30.52;14.65;;;10.00;99.90;;;;;;6338411;22;20067;-67
2021/12/25 13:11:09;;;;;;;34.85;15.07;;;10.00;99.90;;;;;;6353893;22;19995;-70
2021/12/25 13:13:41;;;;;;;31.98;14.85;;;10.10;99.90;;;;;;6347996;22;20006;-70
2021/12/25 13:16:16;;;;;;;35.45;15.23;;;10.10;99.90;;;;;;6352196;22;19999;-68
2021/12/25 13:18:46;;;;;;;29.10;14.63;;;10.00;99.90;;;;;;6360833;22;19986;-67
2021/12/25 13:21:15;;;;;;;33.10;15.02;;;10.10;99.90;;;;;;6334794;22;20058;-67
2021/12/25 13:23:51;;;;;;;28.88;13.65;;;10.10;99.90;;;;;;6360890;22;20024;-67
2021/12/25 13:26:20;;;;;;;31.63;14.57;;;10.10;99.90;;;;;;6332468;22;20085;-67
2021/12/25 13:28:47;;;;;;;30.15;14.55;;;10.20;99.90;;;;;;6334391;22;20014;-66
2021/12/25 13:31:18;;;;;;;31.17;15.40;;;10.10;99.90;;;;;;6361419;22;20365;-68
2021/12/25 13:33:59;;;;;;;24.20;13.77;;;10.00;99.90;;;;;;6359873;22;20030;-69
2021/12/25 13:36:28;;;;;;;23.70;13.10;;;9.90;99.90;;;;;;6361707;22;20010;-70
2021/12/25 13:39:03;;;;;;;24.88;12.50;;;9.90;99.90;;;;;;6360266;22;20003;-69
2021/12/25 13:41:37;;;;;;;24.13;12.93;;;9.90;99.90;;;;;;6359871;22;19999;-67
2021/12/25 13:44:13;;;;;;;26.35;13.45;;;9.80;99.90;;;;;;6350529;22;20002;-69
2021/12/25 13:46:42;;;;;;;22.15;12.40;;;9.70;99.90;;;;;;6349753;22;20002;-68
2021/12/25 13:49:32;;;;;;;21.63;11.95;;;9.70;99.90;;;;;;6351142;22;20001;-70
2021/12/25 13:52:12;;;;;;;19.75;11.60;;;9.70;99.90;;;;;;6326304;22;20094;-68
2021/12/25 13:54:44;;;;;;;23.95;11.25;;;9.70;99.90;;;;;;6353041;22;20002;-65
2021/12/25 13:57:12;;;;;;;20.27;11.77;;;9.60;99.90;;;;;;6324052;22;20014;-67
2021/12/25 13:59:39;;;;;;;20.08;12.05;;;9.60;99.90;;;;;;6354165;22;20419;-67
2021/12/25 14:02:13;;;;;;;22.30;11.20;;;9.70;99.90;;;;;;6347653;22;20031;-66
2021/12/25 14:04:41;;;;;;;19.63;10.65;;;9.70;99.90;;;;;;6350976;22;20312;-68
2021/12/25 14:07:07;;;;;;;26.02;11.98;;;9.70;99.90;;;;;;6346538;22;20011;-69
2021/12/25 14:09:33;;;;;;;24.58;12.30;;;9.60;99.90;;;;;;6354528;22;19979;-69
2021/12/25 14:12:00;;;;;;;23.38;11.98;;;9.50;99.90;;;;;;6351177;22;20002;-68
2021/12/25 14:14:28;;;;;;;21.33;10.82;;;9.50;99.90;;;;;;6344429;22;20006;-65